Mayo, South Carolina
Current Conditions -  °F | °C
As of 9:35 AM on Sunday 23 Nov 2014 (Local Time) from KSPA Reporting Station
Drizzle Drizzle  
Wind Chill: 39°   Ceiling: 800
Heat Index: 43°   Visibility: 10mi
Dew Point: 43°   Wind: 6mph
Humidity: 100%   Direction: 20°NNE
Pressure: 30.17"   Gusts: NA
Location:  35.08°N, 81.86°W
Report Text: KSPA 231435Z AUTO 02005KT 10SM -DZ OVC008 06/06 A3017 RMK AO2
Loading
Personal Weather Stations






























Interactive Weather Map New forecast layout! Learn more

10-Day Weather Forecast

Advertisements
Track Severe Weather on mobile